Quick Links (Output Below):   Max & Min Temps   /   Climate Reports   /   Zone Forecasts
River Forecasts   /   Forestry Forecasts   /   Aviation Forecasts   /   Radars   /   Features

Terminal Aerodrome Forecast (Little Rock)

Pick a Site:
Arkadelphia | El Dorado | Fayetteville | Fort Smith | Harrison | Highfill | Hot Springs | Jonesboro
Little Rock | Monticello | Mountain Home | Pine Bluff | Texarkana
 Forecast 

KLIT 190826Z 1908/2006 05007KT P6SM OVC006
      TEMPO 1910/1913 5SM BR
     FM191600 05006KT 5SM BR OVC007
     FM192000 06005KT 6SM BR OVC015
     FM200000 05004KT P6SM SCT007 BKN015=


 Latest METARs (Observations) 
How to Decode METARs
09Z KLIT 190853Z 04004KT 7SM OVC006 06/03 A3024 RMK AO2 SLP243
         T00560033 55005
         
08Z KLIT 190753Z 07006KT 7SM OVC006 06/03 A3022 RMK AO2 SLP237
         T00560033
         
07Z KLIT 190653Z 04005KT 7SM OVC006 06/03 A3023 RMK AO2 SLP239
         T00560033
         
06Z KLIT 190553Z 02005KT 6SM BR OVC006 06/03 A3025 RMK AO2 SLP248
         T00560033 10061 20056 400670028 52002
         
05Z KLIT 190453Z 03005KT 6SM BR OVC008 06/03 A3025 RMK AO2 SLP247
         T00560033
         
04Z KLIT 190353Z COR 01003KT 4SM BR OVC006 06/03 A3025 RMK AO2 SLP246
         T00610033
         
03Z KLIT 190253Z 01004KT 4SM BR OVC006 06/03 A3025 RMK AO2 SLP245
         T00610033 51013
         
02Z KLIT 190153Z 02004KT 4SM BR OVC006 06/03 A3024 RMK AO2 CIG 005V010
         SLP243 T00610033
         
01Z KLIT 190053Z 08006KT 4SM BR OVC006 06/04 A3022 RMK AO2 SLP236
         T00560039
         
00Z KLIT 182353Z 04006KT 4SM BR OVC006 06/03 A3021 RMK AO2 SLP232 CIG
         RGD T00560033 10067 20050 53008
         
***** Today's Observations (Above) *****


Back to Main Page
http://www.srh.noaa.gov/lzk/qfcst.php

USA.gov is the U.S. government's official web portal to all federal, state and local government web resources and services.